sensor_id;sensor_type;location;lat;lon;timestamp;P1;durP1;ratioP1;P2;durP2;ratioP2
23714;SDS011;12036;50.858;4.472;2022-08-30T00:02:43;8.90;;;3.60;;
23714;SDS011;12036;50.858;4.472;2022-08-30T00:05:08;9.00;;;4.20;;
23714;SDS011;12036;50.858;4.472;2022-08-30T00:07:34;8.73;;;3.95;;
23714;SDS011;12036;50.858;4.472;2022-08-30T00:10:00;6.93;;;3.72;;
23714;SDS011;12036;50.858;4.472;2022-08-30T00:12:26;8.10;;;4.05;;
23714;SDS011;12036;50.858;4.472;2022-08-30T00:14:52;8.00;;;4.10;;
23714;SDS011;12036;50.858;4.472;2022-08-30T00:17:18;7.35;;;4.13;;
23714;SDS011;12036;50.858;4.472;2022-08-30T00:19:44;9.65;;;3.70;;
23714;SDS011;12036;50.858;4.472;2022-08-30T00:22:10;5.68;;;4.00;;
23714;SDS011;12036;50.858;4.472;2022-08-30T00:24:36;12.63;;;4.03;;
23714;SDS011;12036;50.858;4.472;2022-08-30T00:27:02;12.00;;;4.28;;
23714;SDS011;12036;50.858;4.472;2022-08-30T00:29:28;6.40;;;3.90;;
23714;SDS011;12036;50.858;4.472;2022-08-30T00:31:54;10.60;;;4.22;;
23714;SDS011;12036;50.858;4.472;2022-08-30T00:34:19;9.80;;;4.70;;
23714;SDS011;12036;50.858;4.472;2022-08-30T00:36:45;12.18;;;4.45;;
23714;SDS011;12036;50.858;4.472;2022-08-30T00:39:11;8.73;;;3.85;;
23714;SDS011;12036;50.858;4.472;2022-08-30T00:41:37;12.80;;;4.57;;
23714;SDS011;12036;50.858;4.472;2022-08-30T00:44:03;7.97;;;4.55;;
23714;SDS011;12036;50.858;4.472;2022-08-30T00:46:29;7.38;;;4.00;;
23714;SDS011;12036;50.858;4.472;2022-08-30T00:48:56;12.07;;;4.80;;
23714;SDS011;12036;50.858;4.472;2022-08-30T00:51:26;7.82;;;4.47;;
23714;SDS011;12036;50.858;4.472;2022-08-30T00:53:53;6.63;;;4.78;;
23714;SDS011;12036;50.858;4.472;2022-08-30T00:56:20;6.43;;;4.05;;
23714;SDS011;12036;50.858;4.472;2022-08-30T00:58:49;6.90;;;4.15;;
23714;SDS011;12036;50.858;4.472;2022-08-30T01:01:17;14.77;;;4.30;;
23714;SDS011;12036;50.858;4.472;2022-08-30T01:03:44;15.00;;;4.55;;
23714;SDS011;12036;50.858;4.472;2022-08-30T01:06:11;8.82;;;4.63;;
23714;SDS011;12036;50.858;4.472;2022-08-30T01:08:40;10.95;;;4.63;;
23714;SDS011;12036;50.858;4.472;2022-08-30T01:11:07;11.75;;;4.47;;
23714;SDS011;12036;50.858;4.472;2022-08-30T01:13:33;9.82;;;5.00;;
23714;SDS011;12036;50.858;4.472;2022-08-30T01:15:59;11.73;;;4.68;;
23714;SDS011;12036;50.858;4.472;2022-08-30T01:18:26;8.50;;;4.32;;
23714;SDS011;12036;50.858;4.472;2022-08-30T01:23:18;10.68;;;5.47;;
23714;SDS011;12036;50.858;4.472;2022-08-30T01:25:46;12.48;;;4.47;;
23714;SDS011;12036;50.858;4.472;2022-08-30T01:28:15;10.25;;;4.78;;
23714;SDS011;12036;50.858;4.472;2022-08-30T01:30:44;12.05;;;4.53;;
23714;SDS011;12036;50.858;4.472;2022-08-30T01:33:11;10.10;;;4.70;;
23714;SDS011;12036;50.858;4.472;2022-08-30T01:35:56;13.25;;;5.18;;
23714;SDS011;12036;50.858;4.472;2022-08-30T01:38:25;10.43;;;5.00;;
23714;SDS011;12036;50.858;4.472;2022-08-30T01:40:58;11.25;;;4.85;;
23714;SDS011;12036;50.858;4.472;2022-08-30T01:43:31;7.70;;;5.25;;
23714;SDS011;12036;50.858;4.472;2022-08-30T01:45:56;10.38;;;4.88;;
23714;SDS011;12036;50.858;4.472;2022-08-30T01:48:22;9.48;;;5.03;;
23714;SDS011;12036;50.858;4.472;2022-08-30T01:50:48;11.82;;;5.00;;
23714;SDS011;12036;50.858;4.472;2022-08-30T01:53:14;11.52;;;4.70;;
23714;SDS011;12036;50.858;4.472;2022-08-30T01:55:40;16.58;;;5.70;;
23714;SDS011;12036;50.858;4.472;2022-08-30T01:58:06;10.18;;;5.45;;
23714;SDS011;12036;50.858;4.472;2022-08-30T02:00:32;10.55;;;5.63;;
23714;SDS011;12036;50.858;4.472;2022-08-30T02:02:57;9.48;;;5.28;;
23714;SDS011;12036;50.858;4.472;2022-08-30T02:05:23;10.63;;;5.07;;
23714;SDS011;12036;50.858;4.472;2022-08-30T02:07:49;8.88;;;5.55;;
23714;SDS011;12036;50.858;4.472;2022-08-30T02:10:14;16.40;;;5.38;;
23714;SDS011;12036;50.858;4.472;2022-08-30T02:12:40;9.52;;;5.45;;
23714;SDS011;12036;50.858;4.472;2022-08-30T02:15:06;14.85;;;5.90;;
23714;SDS011;12036;50.858;4.472;2022-08-30T02:17:33;9.80;;;5.22;;
23714;SDS011;12036;50.858;4.472;2022-08-30T02:19:59;12.27;;;6.90;;
23714;SDS011;12036;50.858;4.472;2022-08-30T02:22:25;12.63;;;5.20;;
23714;SDS011;12036;50.858;4.472;2022-08-30T02:24:50;13.40;;;6.13;;
23714;SDS011;12036;50.858;4.472;2022-08-30T02:27:16;10.32;;;5.57;;
23714;SDS011;12036;50.858;4.472;2022-08-30T02:29:42;11.52;;;6.07;;
23714;SDS011;12036;50.858;4.472;2022-08-30T02:32:07;10.70;;;5.68;;
23714;SDS011;12036;50.858;4.472;2022-08-30T02:34:33;10.48;;;6.57;;
23714;SDS011;12036;50.858;4.472;2022-08-30T02:36:59;15.20;;;6.07;;
23714;SDS011;12036;50.858;4.472;2022-08-30T02:39:25;15.98;;;6.00;;
23714;SDS011;12036;50.858;4.472;2022-08-30T02:41:50;12.38;;;6.20;;
23714;SDS011;12036;50.858;4.472;2022-08-30T02:44:16;11.23;;;6.32;;
23714;SDS011;12036;50.858;4.472;2022-08-30T02:46:42;13.20;;;6.10;;
23714;SDS011;12036;50.858;4.472;2022-08-30T02:49:07;10.82;;;5.75;;
23714;SDS011;12036;50.858;4.472;2022-08-30T02:51:33;7.50;;;5.40;;
23714;SDS011;12036;50.858;4.472;2022-08-30T02:53:59;12.02;;;5.85;;
23714;SDS011;12036;50.858;4.472;2022-08-30T02:56:24;14.75;;;6.05;;
23714;SDS011;12036;50.858;4.472;2022-08-30T02:58:50;11.80;;;5.35;;
23714;SDS011;12036;50.858;4.472;2022-08-30T03:01:15;9.93;;;5.30;;
23714;SDS011;12036;50.858;4.472;2022-08-30T03:03:42;11.27;;;5.43;;
23714;SDS011;12036;50.858;4.472;2022-08-30T03:06:09;9.15;;;5.28;;
23714;SDS011;12036;50.858;4.472;2022-08-30T03:08:35;11.52;;;5.57;;
23714;SDS011;12036;50.858;4.472;2022-08-30T03:11:02;16.52;;;6.35;;
23714;SDS011;12036;50.858;4.472;2022-08-30T03:13:28;11.10;;;5.55;;
23714;SDS011;12036;50.858;4.472;2022-08-30T03:15:54;14.23;;;5.45;;
23714;SDS011;12036;50.858;4.472;2022-08-30T03:18:20;18.27;;;6.75;;
23714;SDS011;12036;50.858;4.472;2022-08-30T03:20:46;11.15;;;6.20;;
23714;SDS011;12036;50.858;4.472;2022-08-30T03:23:13;10.50;;;5.35;;
23714;SDS011;12036;50.858;4.472;2022-08-30T03:25:39;14.70;;;6.32;;
23714;SDS011;12036;50.858;4.472;2022-08-30T03:28:05;14.98;;;5.72;;
23714;SDS011;12036;50.858;4.472;2022-08-30T03:30:31;12.48;;;6.22;;
23714;SDS011;12036;50.858;4.472;2022-08-30T03:32:57;16.17;;;6.38;;
23714;SDS011;12036;50.858;4.472;2022-08-30T03:35:23;16.13;;;6.95;;
23714;SDS011;12036;50.858;4.472;2022-08-30T03:37:49;13.30;;;5.93;;
23714;SDS011;12036;50.858;4.472;2022-08-30T03:40:16;16.08;;;6.75;;
23714;SDS011;12036;50.858;4.472;2022-08-30T03:42:43;10.75;;;6.20;;
23714;SDS011;12036;50.858;4.472;2022-08-30T03:45:10;10.15;;;6.32;;
23714;SDS011;12036;50.858;4.472;2022-08-30T03:47:37;12.48;;;5.78;;
23714;SDS011;12036;50.858;4.472;2022-08-30T03:50:03;18.08;;;5.97;;
23714;SDS011;12036;50.858;4.472;2022-08-30T03:52:30;11.82;;;5.70;;
23714;SDS011;12036;50.858;4.472;2022-08-30T03:54:56;11.55;;;6.68;;
23714;SDS011;12036;50.858;4.472;2022-08-30T03:57:21;11.07;;;6.40;;
23714;SDS011;12036;50.858;4.472;2022-08-30T03:59:47;12.25;;;6.20;;
23714;SDS011;12036;50.858;4.472;2022-08-30T04:02:13;15.80;;;7.13;;
23714;SDS011;12036;50.858;4.472;2022-08-30T04:04:38;10.52;;;5.72;;
23714;SDS011;12036;50.858;4.472;2022-08-30T04:07:04;13.32;;;6.38;;
23714;SDS011;12036;50.858;4.472;2022-08-30T04:09:30;11.23;;;6.45;;
23714;SDS011;12036;50.858;4.472;2022-08-30T04:11:55;11.43;;;6.43;;
23714;SDS011;12036;50.858;4.472;2022-08-30T04:14:21;13.63;;;6.82;;
23714;SDS011;12036;50.858;4.472;2022-08-30T04:16:47;11.73;;;6.57;;
23714;SDS011;12036;50.858;4.472;2022-08-30T04:19:13;9.63;;;6.60;;
23714;SDS011;12036;50.858;4.472;2022-08-30T04:21:39;12.88;;;6.55;;
23714;SDS011;12036;50.858;4.472;2022-08-30T04:24:04;12.02;;;6.80;;
23714;SDS011;12036;50.858;4.472;2022-08-30T04:26:30;9.40;;;6.00;;
23714;SDS011;12036;50.858;4.472;2022-08-30T04:28:56;11.88;;;6.53;;
23714;SDS011;12036;50.858;4.472;2022-08-30T04:31:23;12.80;;;7.18;;
23714;SDS011;12036;50.858;4.472;2022-08-30T04:33:49;14.70;;;7.28;;
23714;SDS011;12036;50.858;4.472;2022-08-30T04:36:14;15.23;;;6.57;;
23714;SDS011;12036;50.858;4.472;2022-08-30T04:38:40;11.60;;;6.57;;
23714;SDS011;12036;50.858;4.472;2022-08-30T04:41:10;11.10;;;6.90;;
23714;SDS011;12036;50.858;4.472;2022-08-30T04:43:45;12.43;;;7.32;;
23714;SDS011;12036;50.858;4.472;2022-08-30T04:46:13;12.18;;;7.30;;
23714;SDS011;12036;50.858;4.472;2022-08-30T04:48:39;11.30;;;6.72;;
23714;SDS011;12036;50.858;4.472;2022-08-30T04:51:05;13.23;;;7.43;;
23714;SDS011;12036;50.858;4.472;2022-08-30T04:53:32;12.35;;;7.20;;
23714;SDS011;12036;50.858;4.472;2022-08-30T04:55:58;11.48;;;7.57;;
23714;SDS011;12036;50.858;4.472;2022-08-30T04:58:24;13.63;;;6.72;;
23714;SDS011;12036;50.858;4.472;2022-08-30T05:00:50;13.55;;;7.95;;
23714;SDS011;12036;50.858;4.472;2022-08-30T05:03:15;11.60;;;6.82;;
23714;SDS011;12036;50.858;4.472;2022-08-30T05:05:46;14.13;;;7.10;;
23714;SDS011;12036;50.858;4.472;2022-08-30T05:08:16;16.15;;;7.10;;
23714;SDS011;12036;50.858;4.472;2022-08-30T05:10:45;13.38;;;7.55;;
23714;SDS011;12036;50.858;4.472;2022-08-30T05:13:13;12.63;;;7.18;;
23714;SDS011;12036;50.858;4.472;2022-08-30T05:15:39;14.77;;;7.80;;
23714;SDS011;12036;50.858;4.472;2022-08-30T05:18:05;9.73;;;7.60;;
23714;SDS011;12036;50.858;4.472;2022-08-30T05:20:33;13.55;;;6.60;;
23714;SDS011;12036;50.858;4.472;2022-08-30T05:22:59;9.85;;;7.55;;
23714;SDS011;12036;50.858;4.472;2022-08-30T05:25:26;17.80;;;7.22;;
23714;SDS011;12036;50.858;4.472;2022-08-30T05:27:54;14.15;;;7.03;;
23714;SDS011;12036;50.858;4.472;2022-08-30T05:30:21;12.02;;;7.10;;
23714;SDS011;12036;50.858;4.472;2022-08-30T05:32:48;12.20;;;7.38;;
23714;SDS011;12036;50.858;4.472;2022-08-30T05:35:15;15.15;;;7.32;;
23714;SDS011;12036;50.858;4.472;2022-08-30T05:37:41;14.40;;;7.03;;
23714;SDS011;12036;50.858;4.472;2022-08-30T05:40:08;10.90;;;6.95;;
23714;SDS011;12036;50.858;4.472;2022-08-30T05:42:35;10.27;;;6.95;;
23714;SDS011;12036;50.858;4.472;2022-08-30T05:45:02;13.05;;;6.88;;
23714;SDS011;12036;50.858;4.472;2022-08-30T05:47:29;12.52;;;6.65;;
23714;SDS011;12036;50.858;4.472;2022-08-30T05:49:55;13.07;;;6.93;;
23714;SDS011;12036;50.858;4.472;2022-08-30T05:52:20;11.70;;;7.22;;
23714;SDS011;12036;50.858;4.472;2022-08-30T05:54:53;12.77;;;6.55;;
23714;SDS011;12036;50.858;4.472;2022-08-30T05:57:23;14.73;;;7.25;;
23714;SDS011;12036;50.858;4.472;2022-08-30T05:59:49;10.38;;;6.80;;
23714;SDS011;12036;50.858;4.472;2022-08-30T06:02:15;11.25;;;7.18;;
23714;SDS011;12036;50.858;4.472;2022-08-30T06:04:41;10.98;;;6.47;;
23714;SDS011;12036;50.858;4.472;2022-08-30T06:07:07;12.95;;;7.10;;
23714;SDS011;12036;50.858;4.472;2022-08-30T06:09:32;11.40;;;6.65;;
23714;SDS011;12036;50.858;4.472;2022-08-30T06:11:58;12.88;;;7.18;;
23714;SDS011;12036;50.858;4.472;2022-08-30T06:14:24;16.50;;;7.22;;
23714;SDS011;12036;50.858;4.472;2022-08-30T06:16:50;12.15;;;7.07;;
23714;SDS011;12036;50.858;4.472;2022-08-30T06:19:16;13.07;;;6.75;;
23714;SDS011;12036;50.858;4.472;2022-08-30T06:21:46;14.20;;;7.25;;
23714;SDS011;12036;50.858;4.472;2022-08-30T06:24:13;19.38;;;7.90;;
23714;SDS011;12036;50.858;4.472;2022-08-30T06:26:40;12.82;;;6.90;;
23714;SDS011;12036;50.858;4.472;2022-08-30T06:29:09;8.75;;;6.10;;
23714;SDS011;12036;50.858;4.472;2022-08-30T06:31:36;12.02;;;7.45;;
23714;SDS011;12036;50.858;4.472;2022-08-30T06:34:02;9.20;;;6.70;;
23714;SDS011;12036;50.858;4.472;2022-08-30T06:36:28;12.23;;;6.85;;
23714;SDS011;12036;50.858;4.472;2022-08-30T06:38:55;14.00;;;7.57;;
23714;SDS011;12036;50.858;4.472;2022-08-30T06:41:23;12.18;;;7.30;;
23714;SDS011;12036;50.858;4.472;2022-08-30T06:43:57;11.15;;;7.20;;
23714;SDS011;12036;50.858;4.472;2022-08-30T06:46:26;11.45;;;6.80;;
23714;SDS011;12036;50.858;4.472;2022-08-30T06:48:54;11.43;;;7.30;;
23714;SDS011;12036;50.858;4.472;2022-08-30T06:51:22;9.52;;;6.88;;
23714;SDS011;12036;50.858;4.472;2022-08-30T06:53:50;9.88;;;6.88;;
23714;SDS011;12036;50.858;4.472;2022-08-30T06:56:16;16.75;;;7.55;;
23714;SDS011;12036;50.858;4.472;2022-08-30T06:58:42;9.98;;;6.93;;
23714;SDS011;12036;50.858;4.472;2022-08-30T07:01:14;9.35;;;7.35;;
23714;SDS011;12036;50.858;4.472;2022-08-30T07:03:42;10.52;;;6.93;;
23714;SDS011;12036;50.858;4.472;2022-08-30T07:06:08;12.65;;;7.22;;
23714;SDS011;12036;50.858;4.472;2022-08-30T07:08:34;11.23;;;6.95;;
23714;SDS011;12036;50.858;4.472;2022-08-30T07:11:01;11.32;;;7.38;;
23714;SDS011;12036;50.858;4.472;2022-08-30T07:13:29;9.77;;;6.93;;
23714;SDS011;12036;50.858;4.472;2022-08-30T07:15:55;13.40;;;6.75;;
23714;SDS011;12036;50.858;4.472;2022-08-30T07:18:21;8.75;;;6.53;;
23714;SDS011;12036;50.858;4.472;2022-08-30T07:21:06;13.73;;;7.03;;
23714;SDS011;12036;50.858;4.472;2022-08-30T07:23:35;9.57;;;6.70;;
23714;SDS011;12036;50.858;4.472;2022-08-30T07:26:03;9.07;;;6.82;;
23714;SDS011;12036;50.858;4.472;2022-08-30T07:28:30;11.20;;;6.78;;
23714;SDS011;12036;50.858;4.472;2022-08-30T07:30:57;12.52;;;6.93;;
23714;SDS011;12036;50.858;4.472;2022-08-30T07:33:22;8.82;;;6.70;;
23714;SDS011;12036;50.858;4.472;2022-08-30T07:35:48;8.50;;;6.13;;
23714;SDS011;12036;50.858;4.472;2022-08-30T07:38:14;12.20;;;6.38;;
23714;SDS011;12036;50.858;4.472;2022-08-30T07:40:39;14.10;;;6.15;;
23714;SDS011;12036;50.858;4.472;2022-08-30T07:43:05;14.77;;;6.13;;
23714;SDS011;12036;50.858;4.472;2022-08-30T07:45:31;13.95;;;6.38;;
23714;SDS011;12036;50.858;4.472;2022-08-30T07:47:57;8.45;;;5.88;;
23714;SDS011;12036;50.858;4.472;2022-08-30T07:50:23;11.52;;;6.40;;
23714;SDS011;12036;50.858;4.472;2022-08-30T07:52:49;10.52;;;5.80;;
23714;SDS011;12036;50.858;4.472;2022-08-30T07:55:15;11.35;;;5.28;;
23714;SDS011;12036;50.858;4.472;2022-08-30T07:57:40;7.68;;;5.40;;
23714;SDS011;12036;50.858;4.472;2022-08-30T08:00:06;11.18;;;6.07;;
23714;SDS011;12036;50.858;4.472;2022-08-30T08:02:33;11.57;;;5.40;;
23714;SDS011;12036;50.858;4.472;2022-08-30T08:04:58;10.77;;;5.88;;
23714;SDS011;12036;50.858;4.472;2022-08-30T08:07:24;10.48;;;5.30;;
23714;SDS011;12036;50.858;4.472;2022-08-30T08:09:50;11.43;;;5.97;;
23714;SDS011;12036;50.858;4.472;2022-08-30T08:12:15;8.23;;;4.85;;
23714;SDS011;12036;50.858;4.472;2022-08-30T08:14:41;9.32;;;5.07;;
23714;SDS011;12036;50.858;4.472;2022-08-30T08:17:07;7.50;;;4.70;;
23714;SDS011;12036;50.858;4.472;2022-08-30T08:19:33;7.88;;;4.43;;
23714;SDS011;12036;50.858;4.472;2022-08-30T08:21:58;7.88;;;4.75;;
23714;SDS011;12036;50.858;4.472;2022-08-30T08:24:27;11.55;;;4.45;;
23714;SDS011;12036;50.858;4.472;2022-08-30T08:26:53;7.88;;;4.80;;
23714;SDS011;12036;50.858;4.472;2022-08-30T08:29:20;6.95;;;4.57;;
23714;SDS011;12036;50.858;4.472;2022-08-30T08:31:47;10.32;;;5.00;;
23714;SDS011;12036;50.858;4.472;2022-08-30T08:34:13;5.65;;;3.97;;
23714;SDS011;12036;50.858;4.472;2022-08-30T08:36:39;9.30;;;5.38;;
23714;SDS011;12036;50.858;4.472;2022-08-30T08:39:05;7.95;;;4.82;;
23714;SDS011;12036;50.858;4.472;2022-08-30T08:47:46;6.00;;;4.55;;
23714;SDS011;12036;50.858;4.472;2022-08-30T08:50:27;8.40;;;4.40;;
23714;SDS011;12036;50.858;4.472;2022-08-30T08:53:12;10.82;;;4.60;;
23714;SDS011;12036;50.858;4.472;2022-08-30T08:56:02;12.57;;;4.15;;
23714;SDS011;12036;50.858;4.472;2022-08-30T09:01:21;5.85;;;3.88;;
23714;SDS011;12036;50.858;4.472;2022-08-30T09:03:48;7.43;;;3.70;;
23714;SDS011;12036;50.858;4.472;2022-08-30T09:09:19;12.98;;;4.38;;
23714;SDS011;12036;50.858;4.472;2022-08-30T09:11:49;8.18;;;4.22;;
23714;SDS011;12036;50.858;4.472;2022-08-30T09:14:16;6.75;;;3.88;;
23714;SDS011;12036;50.858;4.472;2022-08-30T09:16:50;10.15;;;3.65;;
23714;SDS011;12036;50.858;4.472;2022-08-30T09:21:59;8.85;;;4.10;;
23714;SDS011;12036;50.858;4.472;2022-08-30T09:24:47;6.18;;;3.63;;
23714;SDS011;12036;50.858;4.472;2022-08-30T09:27:24;7.43;;;3.55;;
23714;SDS011;12036;50.858;4.472;2022-08-30T09:29:54;8.48;;;3.58;;
23714;SDS011;12036;50.858;4.472;2022-08-30T09:32:28;10.45;;;3.60;;
23714;SDS011;12036;50.858;4.472;2022-08-30T09:34:56;6.05;;;3.38;;
23714;SDS011;12036;50.858;4.472;2022-08-30T09:37:27;6.82;;;3.50;;
23714;SDS011;12036;50.858;4.472;2022-08-30T09:39:58;5.30;;;3.03;;
23714;SDS011;12036;50.858;4.472;2022-08-30T09:42:25;6.53;;;3.28;;
23714;SDS011;12036;50.858;4.472;2022-08-30T09:44:53;9.15;;;3.33;;
23714;SDS011;12036;50.858;4.472;2022-08-30T09:47:37;5.60;;;3.17;;
23714;SDS011;12036;50.858;4.472;2022-08-30T09:50:26;8.35;;;2.97;;
23714;SDS011;12036;50.858;4.472;2022-08-30T09:55:33;5.47;;;3.05;;
23714;SDS011;12036;50.858;4.472;2022-08-30T09:58:19;5.80;;;3.00;;
23714;SDS011;12036;50.858;4.472;2022-08-30T10:06:28;7.22;;;3.25;;
23714;SDS011;12036;50.858;4.472;2022-08-30T10:09:22;6.20;;;3.30;;
23714;SDS011;12036;50.858;4.472;2022-08-30T10:11:55;4.47;;;2.80;;
23714;SDS011;12036;50.858;4.472;2022-08-30T10:17:19;4.75;;;2.50;;
23714;SDS011;12036;50.858;4.472;2022-08-30T10:20:30;8.68;;;2.45;;
23714;SDS011;12036;50.858;4.472;2022-08-30T10:22:57;7.93;;;2.90;;
23714;SDS011;12036;50.858;4.472;2022-08-30T10:25:25;4.47;;;2.50;;
23714;SDS011;12036;50.858;4.472;2022-08-30T10:30:47;8.35;;;2.15;;
23714;SDS011;12036;50.858;4.472;2022-08-30T10:33:22;5.07;;;2.05;;
23714;SDS011;12036;50.858;4.472;2022-08-30T10:35:53;6.90;;;2.25;;
23714;SDS011;12036;50.858;4.472;2022-08-30T10:38:25;7.18;;;2.42;;
23714;SDS011;12036;50.858;4.472;2022-08-30T10:49:04;10.23;;;2.50;;
23714;SDS011;12036;50.858;4.472;2022-08-30T10:51:46;11.20;;;3.58;;
23714;SDS011;12036;50.858;4.472;2022-08-30T10:54:30;6.13;;;3.25;;
23714;SDS011;12036;50.858;4.472;2022-08-30T10:57:01;2.97;;;2.53;;
23714;SDS011;12036;50.858;4.472;2022-08-30T10:59:27;5.03;;;3.20;;
23714;SDS011;12036;50.858;4.472;2022-08-30T11:07:20;4.85;;;2.55;;
23714;SDS011;12036;50.858;4.472;2022-08-30T11:12:54;6.15;;;2.35;;
23714;SDS011;12036;50.858;4.472;2022-08-30T11:15:35;6.57;;;2.60;;
23714;SDS011;12036;50.858;4.472;2022-08-30T11:18:16;3.80;;;2.47;;
23714;SDS011;12036;50.858;4.472;2022-08-30T11:20:47;4.10;;;2.60;;
23714;SDS011;12036;50.858;4.472;2022-08-30T11:31:08;8.48;;;2.38;;
23714;SDS011;12036;50.858;4.472;2022-08-30T11:33:48;6.10;;;2.20;;
23714;SDS011;12036;50.858;4.472;2022-08-30T11:41:28;6.10;;;2.72;;
23714;SDS011;12036;50.858;4.472;2022-08-30T11:46:45;8.18;;;2.58;;
23714;SDS011;12036;50.858;4.472;2022-08-30T12:00:09;2.88;;;2.03;;
23714;SDS011;12036;50.858;4.472;2022-08-30T12:02:55;8.63;;;2.78;;
23714;SDS011;12036;50.858;4.472;2022-08-30T12:10:50;7.47;;;2.55;;
23714;SDS011;12036;50.858;4.472;2022-08-30T12:16:00;8.63;;;2.80;;
23714;SDS011;12036;50.858;4.472;2022-08-30T12:18:28;7.15;;;3.00;;
23714;SDS011;12036;50.858;4.472;2022-08-30T12:21:12;6.13;;;2.70;;
23714;SDS011;12036;50.858;4.472;2022-08-30T12:28:50;4.57;;;2.75;;
23714;SDS011;12036;50.858;4.472;2022-08-30T12:31:28;4.90;;;2.47;;
23714;SDS011;12036;50.858;4.472;2022-08-30T12:33:55;3.42;;;2.40;;
23714;SDS011;12036;50.858;4.472;2022-08-30T12:39:05;11.40;;;2.70;;
23714;SDS011;12036;50.858;4.472;2022-08-30T12:41:30;5.00;;;2.33;;
23714;SDS011;12036;50.858;4.472;2022-08-30T12:43:56;5.05;;;2.42;;
23714;SDS011;12036;50.858;4.472;2022-08-30T12:46:23;5.50;;;2.58;;
23714;SDS011;12036;50.858;4.472;2022-08-30T12:48:49;8.77;;;2.58;;
23714;SDS011;12036;50.858;4.472;2022-08-30T12:51:25;7.75;;;2.92;;
23714;SDS011;12036;50.858;4.472;2022-08-30T12:54:01;7.90;;;2.75;;
23714;SDS011;12036;50.858;4.472;2022-08-30T12:59:36;4.88;;;2.40;;
23714;SDS011;12036;50.858;4.472;2022-08-30T13:04:43;9.70;;;2.95;;
23714;SDS011;12036;50.858;4.472;2022-08-30T13:07:21;11.93;;;3.03;;
23714;SDS011;12036;50.858;4.472;2022-08-30T13:10:08;3.95;;;2.17;;
23714;SDS011;12036;50.858;4.472;2022-08-30T13:13:03;6.43;;;2.42;;
23714;SDS011;12036;50.858;4.472;2022-08-30T13:15:31;8.43;;;2.40;;
23714;SDS011;12036;50.858;4.472;2022-08-30T13:21:11;11.07;;;2.75;;
23714;SDS011;12036;50.858;4.472;2022-08-30T13:23:56;5.00;;;2.17;;
23714;SDS011;12036;50.858;4.472;2022-08-30T13:26:22;9.38;;;2.45;;
23714;SDS011;12036;50.858;4.472;2022-08-30T13:28:55;6.50;;;2.40;;
23714;SDS011;12036;50.858;4.472;2022-08-30T13:31:23;9.20;;;2.40;;
23714;SDS011;12036;50.858;4.472;2022-08-30T13:33:51;5.40;;;2.45;;
23714;SDS011;12036;50.858;4.472;2022-08-30T13:36:22;11.07;;;2.00;;
23714;SDS011;12036;50.858;4.472;2022-08-30T13:38:52;6.25;;;2.22;;
23714;SDS011;12036;50.858;4.472;2022-08-30T13:41:18;4.80;;;2.50;;
23714;SDS011;12036;50.858;4.472;2022-08-30T13:43:45;4.28;;;1.90;;
23714;SDS011;12036;50.858;4.472;2022-08-30T13:46:11;4.82;;;2.33;;
23714;SDS011;12036;50.858;4.472;2022-08-30T13:48:39;7.60;;;2.08;;
23714;SDS011;12036;50.858;4.472;2022-08-30T13:51:05;5.30;;;2.10;;
23714;SDS011;12036;50.858;4.472;2022-08-30T13:53:31;9.45;;;2.22;;
23714;SDS011;12036;50.858;4.472;2022-08-30T13:55:56;5.22;;;2.00;;
23714;SDS011;12036;50.858;4.472;2022-08-30T13:58:22;4.85;;;2.10;;
23714;SDS011;12036;50.858;4.472;2022-08-30T14:00:48;6.28;;;2.00;;
23714;SDS011;12036;50.858;4.472;2022-08-30T14:03:14;4.55;;;2.15;;
23714;SDS011;12036;50.858;4.472;2022-08-30T14:05:40;4.35;;;2.10;;
23714;SDS011;12036;50.858;4.472;2022-08-30T14:08:08;4.80;;;1.88;;
23714;SDS011;12036;50.858;4.472;2022-08-30T14:10:35;6.65;;;2.15;;
23714;SDS011;12036;50.858;4.472;2022-08-30T14:13:02;5.00;;;2.33;;
23714;SDS011;12036;50.858;4.472;2022-08-30T14:15:29;4.78;;;2.05;;
23714;SDS011;12036;50.858;4.472;2022-08-30T14:17:56;11.85;;;2.15;;
23714;SDS011;12036;50.858;4.472;2022-08-30T14:20:21;7.28;;;2.33;;
23714;SDS011;12036;50.858;4.472;2022-08-30T14:22:47;7.55;;;2.05;;
23714;SDS011;12036;50.858;4.472;2022-08-30T14:25:13;5.38;;;2.10;;
23714;SDS011;12036;50.858;4.472;2022-08-30T14:27:39;7.30;;;1.85;;
23714;SDS011;12036;50.858;4.472;2022-08-30T14:30:05;5.25;;;1.67;;
23714;SDS011;12036;50.858;4.472;2022-08-30T14:32:31;4.95;;;1.88;;
23714;SDS011;12036;50.858;4.472;2022-08-30T14:34:57;3.42;;;2.13;;
23714;SDS011;12036;50.858;4.472;2022-08-30T14:37:23;5.15;;;2.05;;
23714;SDS011;12036;50.858;4.472;2022-08-30T14:39:48;8.48;;;1.88;;
23714;SDS011;12036;50.858;4.472;2022-08-30T14:42:14;8.57;;;1.98;;
23714;SDS011;12036;50.858;4.472;2022-08-30T14:44:40;6.85;;;2.13;;
23714;SDS011;12036;50.858;4.472;2022-08-30T14:47:06;8.10;;;1.73;;
23714;SDS011;12036;50.858;4.472;2022-08-30T14:49:32;4.13;;;1.90;;
23714;SDS011;12036;50.858;4.472;2022-08-30T14:51:57;7.13;;;1.98;;
23714;SDS011;12036;50.858;4.472;2022-08-30T14:54:24;2.35;;;1.80;;
23714;SDS011;12036;50.858;4.472;2022-08-30T14:56:52;5.10;;;1.98;;
23714;SDS011;12036;50.858;4.472;2022-08-30T14:59:18;5.57;;;2.17;;
23714;SDS011;12036;50.858;4.472;2022-08-30T15:01:43;5.78;;;1.80;;
23714;SDS011;12036;50.858;4.472;2022-08-30T15:04:09;3.22;;;1.90;;
23714;SDS011;12036;50.858;4.472;2022-08-30T15:06:36;6.15;;;2.00;;
23714;SDS011;12036;50.858;4.472;2022-08-30T15:09:04;7.45;;;1.92;;
23714;SDS011;12036;50.858;4.472;2022-08-30T15:11:31;5.68;;;1.80;;
23714;SDS011;12036;50.858;4.472;2022-08-30T15:13:57;9.25;;;1.90;;
23714;SDS011;12036;50.858;4.472;2022-08-30T15:16:27;2.88;;;1.77;;
23714;SDS011;12036;50.858;4.472;2022-08-30T15:18:56;3.50;;;1.88;;
23714;SDS011;12036;50.858;4.472;2022-08-30T15:21:27;6.40;;;1.70;;
23714;SDS011;12036;50.858;4.472;2022-08-30T15:23:56;7.70;;;1.55;;
23714;SDS011;12036;50.858;4.472;2022-08-30T15:26:22;10.38;;;2.05;;
23714;SDS011;12036;50.858;4.472;2022-08-30T15:28:48;10.75;;;2.22;;
23714;SDS011;12036;50.858;4.472;2022-08-30T15:31:14;5.60;;;1.90;;
23714;SDS011;12036;50.858;4.472;2022-08-30T15:33:42;5.60;;;2.20;;
23714;SDS011;12036;50.858;4.472;2022-08-30T15:36:08;6.28;;;2.30;;
23714;SDS011;12036;50.858;4.472;2022-08-30T15:38:35;4.35;;;2.35;;
23714;SDS011;12036;50.858;4.472;2022-08-30T15:41:03;7.35;;;2.35;;
23714;SDS011;12036;50.858;4.472;2022-08-30T15:43:32;4.15;;;1.85;;
23714;SDS011;12036;50.858;4.472;2022-08-30T15:46:04;4.75;;;1.92;;
23714;SDS011;12036;50.858;4.472;2022-08-30T15:48:46;2.50;;;1.60;;
23714;SDS011;12036;50.858;4.472;2022-08-30T15:51:12;5.03;;;1.83;;
23714;SDS011;12036;50.858;4.472;2022-08-30T15:53:40;4.70;;;1.90;;
23714;SDS011;12036;50.858;4.472;2022-08-30T15:56:07;5.68;;;2.40;;
23714;SDS011;12036;50.858;4.472;2022-08-30T15:58:34;3.90;;;1.70;;
23714;SDS011;12036;50.858;4.472;2022-08-30T16:01:01;6.43;;;1.60;;
23714;SDS011;12036;50.858;4.472;2022-08-30T16:03:29;8.20;;;1.77;;
23714;SDS011;12036;50.858;4.472;2022-08-30T16:05:55;8.98;;;1.85;;
23714;SDS011;12036;50.858;4.472;2022-08-30T16:08:21;3.42;;;1.65;;
23714;SDS011;12036;50.858;4.472;2022-08-30T16:10:46;7.72;;;1.90;;
23714;SDS011;12036;50.858;4.472;2022-08-30T16:13:13;3.58;;;1.55;;
23714;SDS011;12036;50.858;4.472;2022-08-30T16:15:39;4.78;;;1.60;;
23714;SDS011;12036;50.858;4.472;2022-08-30T16:18:05;6.13;;;1.75;;
23714;SDS011;12036;50.858;4.472;2022-08-30T16:20:31;2.85;;;1.40;;
23714;SDS011;12036;50.858;4.472;2022-08-30T16:22:56;11.82;;;1.92;;
23714;SDS011;12036;50.858;4.472;2022-08-30T16:25:22;5.32;;;1.40;;
23714;SDS011;12036;50.858;4.472;2022-08-30T16:27:47;3.92;;;1.30;;